createdAt,value
2023-05-22T04:19:29.815Z,24.37
2023-05-22T04:22:01.029Z,24.21
2023-05-22T04:24:30.699Z,24.31
2023-05-22T04:27:01.887Z,24.29
2023-05-22T04:29:31.746Z,24.00
2023-05-22T04:32:01.763Z,23.72
2023-05-22T04:34:31.785Z,24.05
2023-05-22T04:37:01.664Z,23.87
2023-05-22T04:39:31.357Z,24.06
2023-05-22T04:42:07.286Z,23.63
2023-05-22T04:44:36.973Z,23.84
2023-05-22T04:47:07.973Z,23.98
2023-05-22T04:49:37.949Z,23.81
2023-05-22T04:52:08.825Z,23.81
2023-05-22T04:54:38.444Z,24.47
2023-05-22T04:57:08.252Z,24.64
2023-05-22T04:59:42.916Z,24.97
2023-05-22T05:02:12.988Z,24.24
2023-05-22T05:04:42.888Z,24.15
2023-05-22T05:07:12.496Z,24.29
2023-05-22T05:09:42.208Z,24.68
2023-05-22T05:12:11.901Z,24.96
2023-05-22T05:14:41.557Z,24.60
2023-05-22T05:17:11.380Z,24.64
2023-05-22T05:19:41.294Z,24.42
2023-05-22T05:22:10.981Z,24.18
2023-05-22T05:24:40.542Z,24.82
2023-05-22T05:27:10.221Z,24.37
2023-05-22T05:29:39.907Z,24.70
2023-05-22T05:32:09.959Z,24.85
2023-05-22T05:34:39.682Z,24.55
2023-05-22T05:37:09.547Z,24.85
2023-05-22T05:39:39.152Z,25.31
2023-05-22T05:42:08.926Z,25.19
2023-05-22T05:44:38.668Z,25.53
2023-05-22T05:47:08.687Z,24.65
2023-05-22T05:49:38.353Z,24.48
2023-05-22T05:52:09.489Z,24.17
2023-05-22T05:54:39.153Z,24.55
2023-05-22T05:57:09.193Z,24.75
2023-05-22T05:59:38.853Z,24.77
2023-05-22T06:02:09.148Z,24.87
2023-05-22T06:04:39.160Z,24.65
2023-05-22T06:07:09.542Z,24.37
2023-05-22T06:09:39.794Z,24.54
2023-05-22T06:12:14.060Z,24.37
2023-05-22T06:14:43.919Z,24.63
2023-05-22T06:17:13.961Z,24.62
2023-05-22T06:19:43.846Z,24.74
2023-05-22T06:22:13.688Z,24.55
2023-05-22T06:24:43.403Z,24.88
2023-05-22T06:27:13.017Z,24.73
2023-05-22T06:29:42.751Z,24.81
2023-05-22T06:32:12.494Z,24.58
2023-05-22T06:34:42.234Z,24.85
2023-05-22T06:37:12.488Z,24.54
2023-05-22T06:39:42.641Z,25.13
2023-05-22T06:42:12.248Z,25.38
2023-05-22T06:44:41.910Z,25.36
2023-05-22T06:47:11.547Z,25.43
2023-05-22T06:49:41.179Z,25.65
2023-05-22T06:52:11.621Z,25.59
2023-05-22T06:54:44.437Z,25.58
2023-05-22T06:57:14.075Z,25.86
2023-05-22T06:59:43.768Z,25.82
2023-05-22T07:02:13.421Z,25.70
2023-05-22T07:04:43.272Z,25.32
2023-05-22T07:07:13.410Z,25.33
2023-05-22T07:09:43.126Z,25.32
2023-05-22T07:12:12.966Z,25.42
2023-05-22T07:14:42.619Z,25.04
2023-05-22T07:17:12.301Z,25.51
2023-05-22T07:19:41.986Z,25.25
2023-05-22T07:22:11.671Z,25.32
2023-05-22T07:24:41.553Z,24.99
2023-05-22T07:27:11.282Z,24.80
2023-05-22T07:29:41.030Z,24.83
2023-05-22T07:32:10.914Z,25.16
2023-05-22T07:34:40.724Z,25.44
2023-05-22T07:37:13.962Z,25.44
2023-05-22T07:39:44.020Z,25.72
2023-05-22T07:42:16.145Z,25.86
2023-05-22T07:44:45.786Z,25.89
2023-05-22T07:47:15.487Z,25.93
2023-05-22T07:49:45.372Z,25.98
2023-05-22T07:52:15.051Z,25.20
2023-05-22T07:54:45.532Z,25.69
2023-05-22T07:57:15.682Z,25.89
2023-05-22T07:59:45.667Z,25.60
2023-05-22T08:02:15.794Z,25.51
2023-05-22T08:04:46.169Z,25.95
2023-05-22T08:07:15.949Z,25.76
2023-05-22T08:09:47.671Z,25.73
2023-05-22T08:12:17.334Z,25.81
2023-05-22T08:14:47.080Z,25.74
2023-05-22T08:17:16.815Z,25.90
2023-05-22T08:19:46.737Z,25.88
2023-05-22T08:22:16.500Z,25.90
2023-05-22T08:24:46.573Z,25.84
2023-05-22T08:27:16.314Z,25.69
2023-05-22T08:29:46.039Z,25.38
2023-05-22T08:32:15.926Z,25.21
2023-05-22T08:34:47.677Z,25.09
2023-05-22T08:37:17.445Z,24.82
2023-05-22T08:39:47.056Z,24.82
2023-05-22T08:42:16.926Z,24.93
2023-05-22T08:44:47.066Z,24.89
2023-05-22T08:47:17.571Z,24.66
2023-05-22T08:49:53.651Z,24.42
2023-05-22T08:52:35.650Z,24.46
2023-05-22T08:55:09.331Z,24.37
2023-05-22T08:57:39.453Z,24.35
2023-05-22T09:00:09.934Z,24.28
2023-05-22T09:02:40.967Z,24.25
2023-05-22T09:05:11.433Z,24.32
2023-05-22T09:07:42.370Z,24.17
2023-05-22T09:10:12.268Z,24.18
2023-05-22T09:13:10.436Z,24.27
2023-05-22T09:15:40.444Z,24.12
2023-05-22T09:18:10.066Z,24.13
2023-05-22T09:20:41.044Z,-144.25
2023-05-22T09:23:19.375Z,-144.25
2023-05-22T09:25:49.292Z,-144.25
2023-05-22T09:28:18.928Z,-144.25
2023-05-22T09:30:52.539Z,-144.25
2023-05-22T09:33:24.259Z,-144.25
2023-05-22T09:35:57.477Z,-144.25
2023-05-22T09:38:32.376Z,-144.25
2023-05-22T09:41:02.136Z,-144.25
2023-05-22T09:43:31.782Z,-144.25
2023-05-22T09:46:08.169Z,-144.25
2023-05-22T09:48:38.908Z,-144.25
2023-05-22T09:51:10.037Z,-144.25
2023-05-22T09:53:42.272Z,-144.25
2023-05-22T09:56:24.000Z,-144.25
2023-05-22T09:59:01.856Z,-144.25
2023-05-22T10:01:32.664Z,-144.25
2023-05-22T10:04:03.827Z,-144.25
2023-05-22T10:06:36.258Z,-144.25
2023-05-22T10:09:09.146Z,-144.25
2023-05-22T10:11:40.035Z,-144.25
2023-05-22T10:14:11.229Z,-144.25
2023-05-22T10:16:43.263Z,-144.25
2023-05-22T10:19:14.932Z,-144.25
2023-05-22T10:21:44.953Z,-144.25
2023-05-22T10:24:15.417Z,-144.25
2023-05-22T10:26:46.225Z,-144.25
2023-05-22T10:29:35.658Z,-144.25
2023-05-22T10:32:17.750Z,-144.25
2023-05-22T10:35:23.698Z,-144.25
2023-05-22T10:37:58.127Z,-144.25
2023-05-22T10:40:36.219Z,-144.25
2023-05-22T10:43:06.258Z,-144.25
2023-05-22T10:45:36.023Z,-144.25
2023-05-22T10:48:10.511Z,-144.25
2023-05-22T10:50:41.291Z,-144.25
2023-05-22T10:53:29.420Z,-144.25
2023-05-22T10:56:03.869Z,-144.25
2023-05-22T10:58:39.121Z,-144.25
2023-05-22T11:01:16.869Z,-144.25
2023-05-22T11:04:08.785Z,-144.25
2023-05-22T11:06:43.723Z,-144.25
2023-05-22T11:09:35.534Z,-144.25
2023-05-22T11:12:28.014Z,-144.25
2023-05-22T11:17:53.254Z,-144.25
2023-05-22T11:20:32.423Z,-144.25
2023-05-22T11:23:07.202Z,-144.25
2023-05-22T11:25:39.043Z,-144.25
2023-05-22T11:28:09.636Z,-144.25
2023-05-22T11:30:40.478Z,-144.25
2023-05-22T11:33:10.399Z,-144.25
2023-05-22T11:35:40.657Z,-144.25
2023-05-22T11:38:10.963Z,-144.25
2023-05-22T11:40:40.903Z,-144.25
2023-05-22T11:43:10.783Z,-144.25
2023-05-22T11:45:42.140Z,-144.25
2023-05-22T11:48:15.369Z,-144.25
2023-05-22T11:50:46.400Z,-144.25
2023-05-22T11:53:16.484Z,-144.25
2023-05-22T11:55:46.165Z,-144.25
2023-05-22T11:58:15.756Z,-144.25
2023-05-22T12:00:45.793Z,-144.25
2023-05-22T12:03:15.749Z,-144.25
2023-05-22T12:05:48.597Z,-144.25
2023-05-22T12:08:18.615Z,-144.25
2023-05-22T12:10:55.773Z,-144.25
2023-05-22T12:13:30.858Z,-144.25
2023-05-22T12:16:04.398Z,-144.25
2023-05-22T12:18:39.769Z,-144.25
2023-05-22T12:21:09.662Z,-144.25
2023-05-22T12:23:49.433Z,-144.25
2023-05-22T12:26:19.392Z,-144.25
2023-05-22T12:28:49.039Z,-144.25
2023-05-22T12:31:25.278Z,-144.25
2023-05-22T12:33:58.990Z,-144.25
2023-05-22T12:36:54.519Z,-144.25
2023-05-22T12:39:24.242Z,-144.25
2023-05-22T12:41:53.958Z,-144.25
2023-05-22T12:44:23.735Z,-144.25
2023-05-22T12:46:55.028Z,-144.25
2023-05-22T12:49:24.799Z,-144.25
2023-05-22T12:51:54.503Z,-144.25
2023-05-22T12:54:24.168Z,-144.25
2023-05-22T12:56:53.792Z,-144.25
2023-05-22T12:59:23.413Z,-144.25
2023-05-22T13:01:53.296Z,-144.25
2023-05-22T13:04:23.231Z,-144.25
2023-05-22T13:06:52.916Z,-144.25
2023-05-22T13:09:22.799Z,-144.25
2023-05-22T13:11:52.549Z,-144.25
2023-05-22T13:14:22.834Z,-144.25
2023-05-22T13:16:52.535Z,-144.25
2023-05-22T13:19:22.200Z,-144.25
2023-05-22T13:21:51.982Z,-144.25
2023-05-22T13:24:21.663Z,-144.25
2023-05-22T13:26:51.359Z,-144.25
2023-05-22T13:29:21.010Z,-144.25
2023-05-22T13:31:50.725Z,-144.25
2023-05-22T13:34:20.522Z,-144.25
2023-05-22T13:36:50.425Z,-144.25
2023-05-22T13:39:20.171Z,-144.25
2023-05-22T13:41:50.151Z,-144.25
2023-05-22T13:44:19.940Z,-144.25
2023-05-22T13:46:49.877Z,-144.25
2023-05-22T13:49:19.754Z,-144.25
2023-05-22T13:51:49.518Z,-144.25
2023-05-22T13:54:19.216Z,-144.25
2023-05-22T13:56:48.967Z,-144.25
2023-05-22T13:59:18.674Z,-144.25
2023-05-22T14:01:48.409Z,-144.25
2023-05-22T14:04:18.110Z,-144.25
2023-05-22T14:06:47.841Z,-144.25
2023-05-22T14:09:17.646Z,-144.25
2023-05-22T14:11:47.565Z,-144.25
2023-05-22T14:14:17.297Z,-144.25
2023-05-22T14:16:47.046Z,-144.25
2023-05-22T14:19:16.940Z,-144.25
2023-05-22T14:21:47.480Z,-144.25
2023-05-22T14:24:17.555Z,-144.25
2023-05-22T14:26:47.658Z,-144.25
2023-05-22T14:29:17.548Z,-144.25
2023-05-22T14:31:51.933Z,-144.25
2023-05-22T14:34:21.867Z,-144.25
2023-05-22T14:36:51.489Z,-144.25
2023-05-22T14:39:21.207Z,-144.25
2023-05-22T14:41:50.865Z,-144.25
2023-05-22T14:44:21.048Z,-144.25
2023-05-22T14:46:52.509Z,-144.25
2023-05-22T14:49:22.485Z,-144.25
2023-05-22T14:51:52.186Z,-144.25
2023-05-22T14:54:23.158Z,-144.25
2023-05-22T14:56:52.937Z,-144.25
2023-05-22T14:59:23.005Z,-144.25
2023-05-22T15:01:53.690Z,-144.25
2023-05-22T15:04:24.198Z,-144.25
2023-05-22T15:06:53.884Z,-144.25
2023-05-22T15:09:23.559Z,-144.25
2023-05-22T15:11:53.303Z,-144.25
2023-05-22T15:14:23.116Z,-144.25
2023-05-22T15:16:52.758Z,-144.25
2023-05-22T15:19:22.624Z,-144.25
2023-05-22T15:21:52.385Z,-144.25
2023-05-22T15:24:22.282Z,-144.25
2023-05-22T15:26:52.251Z,-144.25
2023-05-22T15:29:22.361Z,-144.25
2023-05-22T15:31:52.040Z,-144.25
2023-05-22T15:34:21.761Z,-144.25
2023-05-22T15:36:51.474Z,-144.25
2023-05-22T15:39:21.164Z,-144.25
2023-05-22T15:42:02.184Z,-144.25
2023-05-22T15:44:35.274Z,-144.25
2023-05-22T15:47:04.961Z,-144.25
2023-05-22T15:49:34.681Z,-144.25
2023-05-22T15:52:05.128Z,-144.25
2023-05-22T15:54:34.753Z,-144.25
2023-05-22T15:57:04.370Z,-144.25
2023-05-22T15:59:34.030Z,-144.25
2023-05-22T16:02:03.733Z,-144.25
2023-05-22T16:04:33.514Z,-144.25
2023-05-22T16:07:03.236Z,-144.25
2023-05-22T16:09:33.090Z,-144.25
2023-05-22T16:12:02.813Z,-144.25
2023-05-22T16:14:33.089Z,-144.25
2023-05-22T16:17:02.827Z,-144.25
2023-05-22T16:19:34.984Z,-144.25
2023-05-22T16:22:04.988Z,-144.25
2023-05-22T16:24:34.745Z,-144.25
2023-05-22T16:27:04.788Z,-144.25
2023-05-22T16:29:34.630Z,-144.25
2023-05-22T16:32:05.275Z,-144.25
2023-05-22T16:34:35.567Z,-144.25
2023-05-22T16:37:05.212Z,-144.25
2023-05-22T16:39:34.909Z,-144.25
2023-05-22T16:42:04.727Z,-144.25
2023-05-22T16:44:34.448Z,-144.25
2023-05-22T16:47:04.196Z,-144.25
2023-05-22T16:49:33.890Z,-144.25
2023-05-22T16:52:03.578Z,-144.25
2023-05-22T16:54:33.321Z,-144.25
2023-05-22T16:57:03.370Z,-144.25
2023-05-22T16:59:33.466Z,-144.25
2023-05-22T17:02:03.362Z,-144.25
2023-05-22T17:04:33.582Z,-144.25
2023-05-22T17:07:03.364Z,-144.25
2023-05-22T17:09:34.715Z,-144.25
2023-05-22T17:12:04.496Z,-144.25
2023-05-22T17:14:35.916Z,-144.25
2023-05-22T17:17:05.772Z,-144.25
2023-05-22T17:19:35.512Z,-144.25
2023-05-22T17:22:05.322Z,-144.25
2023-05-22T17:24:35.606Z,-144.25
2023-05-22T17:27:05.343Z,-144.25
2023-05-22T17:29:34.997Z,-144.25
2023-05-22T17:32:06.988Z,-144.25
2023-05-22T17:34:37.648Z,-144.25
2023-05-22T17:37:07.629Z,-144.25
2023-05-22T17:39:37.308Z,-144.25
2023-05-22T17:42:07.661Z,-144.25
2023-05-22T17:44:38.316Z,-144.25
2023-05-22T17:47:08.258Z,-144.25
2023-05-22T17:49:39.204Z,-144.25
2023-05-22T17:52:10.121Z,-144.25
2023-05-22T17:54:39.836Z,-144.25
2023-05-22T17:59:40.326Z,-144.25
2023-05-22T18:02:11.231Z,-144.25
2023-05-22T18:04:40.916Z,-144.25
2023-05-22T18:07:10.607Z,-144.25
2023-05-22T18:09:40.433Z,-144.25
2023-05-22T18:12:15.179Z,-144.25
2023-05-22T18:14:53.560Z,-144.25
2023-05-22T18:17:23.262Z,-144.25
2023-05-22T18:19:53.054Z,-144.25
2023-05-22T18:22:23.480Z,-144.25
2023-05-22T18:24:53.198Z,-144.25
2023-05-22T18:27:22.912Z,-144.25
2023-05-22T18:29:53.357Z,-144.25
2023-05-22T18:32:25.952Z,-144.25
2023-05-22T18:34:55.673Z,-144.25
2023-05-22T18:37:25.471Z,-144.25
2023-05-22T18:39:55.133Z,-144.25
2023-05-22T18:42:25.249Z,-144.25
2023-05-22T18:44:54.991Z,-144.25
2023-05-22T18:47:24.671Z,-144.25
2023-05-22T18:49:54.415Z,-144.25
2023-05-22T18:52:24.098Z,-144.25
2023-05-22T18:54:53.757Z,-144.25
2023-05-22T18:57:23.464Z,-144.25
2023-05-22T18:59:53.300Z,-144.25
2023-05-22T19:02:23.498Z,-144.25
2023-05-22T19:04:53.485Z,-144.25
2023-05-22T19:07:23.467Z,-144.25
2023-05-22T19:09:53.293Z,-144.25
2023-05-22T19:12:23.068Z,-144.25
2023-05-22T19:14:54.113Z,-144.25
2023-05-22T19:17:23.842Z,-144.25
2023-05-22T19:19:53.549Z,-144.25
2023-05-22T19:22:23.245Z,-144.25
2023-05-22T19:24:53.090Z,-144.25
2023-05-22T19:27:22.756Z,-144.25
2023-05-22T19:29:52.490Z,-144.25
2023-05-22T19:32:22.275Z,-144.25
2023-05-22T19:34:52.351Z,-144.25
2023-05-22T19:37:22.114Z,-144.25
2023-05-22T19:39:51.873Z,-144.25
2023-05-22T19:42:21.573Z,-144.25
2023-05-22T19:44:51.296Z,-144.25
2023-05-22T19:47:21.003Z,-144.25
2023-05-22T19:49:50.628Z,-144.25
2023-05-22T19:52:20.371Z,-144.25
2023-05-22T19:54:50.033Z,-144.25
2023-05-22T19:57:20.962Z,-144.25
2023-05-22T19:59:50.694Z,-144.25
2023-05-22T20:02:20.410Z,-144.25
2023-05-22T20:04:52.186Z,-144.25
2023-05-22T20:07:21.996Z,-144.25
2023-05-22T20:09:51.747Z,-144.25
2023-05-22T20:12:21.479Z,-144.25
2023-05-22T20:14:51.284Z,-144.25
2023-05-22T20:17:24.051Z,-144.25
2023-05-22T20:19:53.774Z,-144.25
2023-05-22T20:22:23.490Z,-144.25
2023-05-22T20:24:53.144Z,-144.25
2023-05-22T20:27:22.896Z,-144.25
2023-05-22T20:29:52.806Z,-144.25
2023-05-22T20:32:22.791Z,-144.25
2023-05-22T20:34:53.869Z,-144.25
2023-05-22T20:37:24.709Z,-144.25
2023-05-22T20:39:54.424Z,-144.25
2023-05-22T20:42:24.439Z,-144.25
2023-05-22T20:44:54.288Z,-144.25
2023-05-22T20:47:23.954Z,-144.25
2023-05-22T20:49:53.678Z,-144.25
2023-05-22T20:52:23.849Z,-144.25
2023-05-22T20:54:53.528Z,-144.25
2023-05-22T20:57:23.214Z,-144.25
2023-05-22T20:59:53.207Z,-144.25
2023-05-22T21:02:23.007Z,-144.25
2023-05-22T21:04:52.807Z,-144.25
2023-05-22T21:07:22.479Z,-144.25
2023-05-22T21:09:52.319Z,-144.25
2023-05-22T21:12:22.259Z,-144.25
2023-05-22T21:14:52.038Z,-144.25
2023-05-22T21:17:21.828Z,-144.25
2023-05-22T21:19:51.666Z,-144.25
2023-05-22T21:22:21.494Z,-144.25
2023-05-22T21:24:51.182Z,-144.25
2023-05-22T21:27:21.064Z,-144.25
2023-05-22T21:29:50.973Z,-144.25
2023-05-22T21:32:20.669Z,-144.25
2023-05-22T21:34:50.370Z,-144.25
2023-05-22T21:37:20.001Z,-144.25
2023-05-22T21:39:49.716Z,-144.25
2023-05-22T21:42:19.892Z,-144.25
2023-05-22T21:44:49.534Z,-144.25
2023-05-22T21:47:19.227Z,-144.25
2023-05-22T21:49:48.822Z,-144.25
2023-05-22T21:52:18.530Z,-144.25
2023-05-22T21:54:48.160Z,-144.25
2023-05-22T21:57:17.803Z,-144.25
2023-05-22T21:59:48.898Z,-144.25
2023-05-22T22:02:18.941Z,-144.25
2023-05-22T22:04:48.573Z,-144.25
2023-05-22T22:07:18.161Z,-144.25
2023-05-22T22:09:47.824Z,-144.25
2023-05-22T22:12:17.652Z,-144.25
2023-05-22T22:14:47.335Z,-144.25
2023-05-22T22:17:18.257Z,-144.25
2023-05-22T22:19:47.861Z,-144.25
2023-05-22T22:22:17.668Z,-144.25
2023-05-22T22:24:48.215Z,-144.25
2023-05-22T22:27:18.129Z,-144.25
2023-05-22T22:29:47.873Z,-144.25
2023-05-22T22:32:17.584Z,-144.25
2023-05-22T22:34:47.490Z,-144.25
2023-05-22T22:37:17.818Z,-144.25
2023-05-22T22:39:47.432Z,-144.25
2023-05-22T22:42:17.441Z,-144.25
2023-05-22T22:44:47.140Z,-144.25
2023-05-22T22:47:16.789Z,-144.25
2023-05-22T22:49:46.408Z,-144.25
2023-05-22T22:52:16.086Z,-144.25
2023-05-22T22:54:46.101Z,-144.25
2023-05-22T22:57:15.841Z,-144.25
2023-05-22T22:59:45.403Z,-144.25
2023-05-22T23:02:15.027Z,-144.25
2023-05-22T23:04:44.727Z,-144.25
2023-05-22T23:07:14.508Z,-144.25
2023-05-22T23:09:44.119Z,-144.25
2023-05-22T23:12:14.176Z,-144.25
2023-05-22T23:14:43.774Z,-144.25
2023-05-22T23:17:13.476Z,-144.25
2023-05-22T23:19:43.421Z,-144.25
2023-05-22T23:22:13.054Z,-144.25
2023-05-22T23:24:42.696Z,-144.25
2023-05-22T23:27:12.545Z,-144.25
2023-05-22T23:29:42.280Z,-144.25
2023-05-22T23:32:14.451Z,-144.25
2023-05-22T23:34:44.738Z,-144.25
2023-05-22T23:37:14.414Z,-144.25
2023-05-22T23:39:44.503Z,-144.25
2023-05-22T23:42:14.529Z,-144.25
2023-05-22T23:44:44.182Z,-144.25
2023-05-22T23:47:13.803Z,-144.25
2023-05-22T23:49:43.432Z,-144.25
2023-05-22T23:52:13.828Z,-144.25
2023-05-22T23:54:43.596Z,-144.25
2023-05-22T23:57:13.204Z,-144.25
2023-05-22T23:59:43.247Z,-144.25
